sensor_id;sensor_type;location;lat;lon;timestamp;temperature;humidity
61841;DHT22;47773;53.174;6.614;2023-03-13T00:00:50;9.10;99.90
61841;DHT22;47773;53.174;6.614;2023-03-13T00:03:16;9.10;99.90
61841;DHT22;47773;53.174;6.614;2023-03-13T00:05:41;9.10;99.90
61841;DHT22;47773;53.174;6.614;2023-03-13T00:08:07;9.10;99.90
61841;DHT22;47773;53.174;6.614;2023-03-13T00:10:36;9.10;99.90
61841;DHT22;47773;53.174;6.614;2023-03-13T00:13:01;9.10;99.90
61841;DHT22;47773;53.174;6.614;2023-03-13T00:15:27;9.10;99.90
61841;DHT22;47773;53.174;6.614;2023-03-13T00:17:52;9.00;99.90
61841;DHT22;47773;53.174;6.614;2023-03-13T00:20:18;9.10;99.90
61841;DHT22;47773;53.174;6.614;2023-03-13T00:22:44;9.10;99.90
61841;DHT22;47773;53.174;6.614;2023-03-13T00:25:09;9.10;99.90
61841;DHT22;47773;53.174;6.614;2023-03-13T00:27:35;9.10;99.90
61841;DHT22;47773;53.174;6.614;2023-03-13T00:30:00;9.00;99.90
61841;DHT22;47773;53.174;6.614;2023-03-13T00:32:26;9.00;99.90
61841;DHT22;47773;53.174;6.614;2023-03-13T00:34:52;9.00;99.90
61841;DHT22;47773;53.174;6.614;2023-03-13T00:37:17;9.00;99.90
61841;DHT22;47773;53.174;6.614;2023-03-13T00:39:43;9.00;99.90
61841;DHT22;47773;53.174;6.614;2023-03-13T00:42:09;9.00;99.90
61841;DHT22;47773;53.174;6.614;2023-03-13T00:44:35;9.00;99.90
61841;DHT22;47773;53.174;6.614;2023-03-13T00:47:00;9.00;99.90
61841;DHT22;47773;53.174;6.614;2023-03-13T00:49:26;8.90;99.90
61841;DHT22;47773;53.174;6.614;2023-03-13T00:51:52;8.90;99.90
61841;DHT22;47773;53.174;6.614;2023-03-13T00:54:17;8.90;99.90
61841;DHT22;47773;53.174;6.614;2023-03-13T00:56:44;8.90;99.90
61841;DHT22;47773;53.174;6.614;2023-03-13T00:59:09;8.90;99.90
61841;DHT22;47773;53.174;6.614;2023-03-13T01:01:35;8.90;99.90
61841;DHT22;47773;53.174;6.614;2023-03-13T01:04:03;8.90;99.90
61841;DHT22;47773;53.174;6.614;2023-03-13T01:06:33;8.90;99.90
61841;DHT22;47773;53.174;6.614;2023-03-13T01:08:59;8.90;99.90
61841;DHT22;47773;53.174;6.614;2023-03-13T01:11:27;8.90;99.90
61841;DHT22;47773;53.174;6.614;2023-03-13T01:13:55;8.90;99.90
61841;DHT22;47773;53.174;6.614;2023-03-13T01:16:22;8.90;99.90
61841;DHT22;47773;53.174;6.614;2023-03-13T01:18:50;8.90;99.90
61841;DHT22;47773;53.174;6.614;2023-03-13T01:21:17;8.90;99.90
61841;DHT22;47773;53.174;6.614;2023-03-13T01:23:44;8.90;99.90
61841;DHT22;47773;53.174;6.614;2023-03-13T01:26:10;8.90;99.90
61841;DHT22;47773;53.174;6.614;2023-03-13T01:28:36;9.00;99.90
61841;DHT22;47773;53.174;6.614;2023-03-13T01:31:14;9.00;99.90
61841;DHT22;47773;53.174;6.614;2023-03-13T01:33:41;9.00;99.90
61841;DHT22;47773;53.174;6.614;2023-03-13T01:36:07;9.00;99.90
61841;DHT22;47773;53.174;6.614;2023-03-13T01:38:33;9.00;99.90
61841;DHT22;47773;53.174;6.614;2023-03-13T01:40:59;8.90;99.90
61841;DHT22;47773;53.174;6.614;2023-03-13T01:43:30;8.90;99.90
61841;DHT22;47773;53.174;6.614;2023-03-13T01:51:53;9.00;99.90
61841;DHT22;47773;53.174;6.614;2023-03-13T01:54:23;9.00;99.90
61841;DHT22;47773;53.174;6.614;2023-03-13T01:57:00;9.00;99.90
61841;DHT22;47773;53.174;6.614;2023-03-13T01:59:44;9.00;99.90
61841;DHT22;47773;53.174;6.614;2023-03-13T02:02:12;9.00;99.90
61841;DHT22;47773;53.174;6.614;2023-03-13T02:04:47;9.00;99.90
61841;DHT22;47773;53.174;6.614;2023-03-13T02:07:18;9.00;99.90
61841;DHT22;47773;53.174;6.614;2023-03-13T02:09:49;9.00;99.90
61841;DHT22;47773;53.174;6.614;2023-03-13T02:12:36;9.00;99.90
61841;DHT22;47773;53.174;6.614;2023-03-13T02:15:06;9.00;99.90
61841;DHT22;47773;53.174;6.614;2023-03-13T02:17:34;9.00;99.90
61841;DHT22;47773;53.174;6.614;2023-03-13T02:20:00;9.00;99.90
61841;DHT22;47773;53.174;6.614;2023-03-13T02:22:43;9.10;99.90
61841;DHT22;47773;53.174;6.614;2023-03-13T02:27:42;9.00;99.90
61841;DHT22;47773;53.174;6.614;2023-03-13T02:30:10;9.10;99.90
61841;DHT22;47773;53.174;6.614;2023-03-13T02:32:36;9.00;99.90
61841;DHT22;47773;53.174;6.614;2023-03-13T02:35:08;9.00;99.90
61841;DHT22;47773;53.174;6.614;2023-03-13T02:37:35;9.10;99.90
61841;DHT22;47773;53.174;6.614;2023-03-13T02:40:08;9.00;99.90
61841;DHT22;47773;53.174;6.614;2023-03-13T02:42:37;9.00;99.90
61841;DHT22;47773;53.174;6.614;2023-03-13T02:45:04;9.00;99.90
61841;DHT22;47773;53.174;6.614;2023-03-13T02:47:30;9.00;99.90
61841;DHT22;47773;53.174;6.614;2023-03-13T02:49:56;9.00;99.90
61841;DHT22;47773;53.174;6.614;2023-03-13T02:52:37;9.00;99.90
61841;DHT22;47773;53.174;6.614;2023-03-13T02:55:06;9.00;99.90
61841;DHT22;47773;53.174;6.614;2023-03-13T02:57:35;9.00;99.90
61841;DHT22;47773;53.174;6.614;2023-03-13T03:00:01;9.00;99.90
61841;DHT22;47773;53.174;6.614;2023-03-13T03:02:28;9.10;99.90
61841;DHT22;47773;53.174;6.614;2023-03-13T03:04:53;9.10;99.90
61841;DHT22;47773;53.174;6.614;2023-03-13T03:07:19;9.10;99.90
61841;DHT22;47773;53.174;6.614;2023-03-13T03:09:45;9.10;99.90
61841;DHT22;47773;53.174;6.614;2023-03-13T03:12:10;9.10;99.90
61841;DHT22;47773;53.174;6.614;2023-03-13T03:14:36;9.10;99.90
61841;DHT22;47773;53.174;6.614;2023-03-13T03:17:02;9.20;99.90
61841;DHT22;47773;53.174;6.614;2023-03-13T03:19:27;9.20;99.90
61841;DHT22;47773;53.174;6.614;2023-03-13T03:21:53;9.20;99.90
61841;DHT22;47773;53.174;6.614;2023-03-13T03:24:19;9.10;99.90
61841;DHT22;47773;53.174;6.614;2023-03-13T03:26:44;9.20;99.90
61841;DHT22;47773;53.174;6.614;2023-03-13T03:29:11;9.20;99.90
61841;DHT22;47773;53.174;6.614;2023-03-13T03:31:37;9.20;99.90
61841;DHT22;47773;53.174;6.614;2023-03-13T03:34:02;9.20;99.90
61841;DHT22;47773;53.174;6.614;2023-03-13T03:36:28;9.30;99.90
61841;DHT22;47773;53.174;6.614;2023-03-13T03:38:54;9.30;99.90
61841;DHT22;47773;53.174;6.614;2023-03-13T03:41:20;9.30;99.90
61841;DHT22;47773;53.174;6.614;2023-03-13T03:43:46;9.30;99.90
61841;DHT22;47773;53.174;6.614;2023-03-13T03:46:13;9.30;99.90
61841;DHT22;47773;53.174;6.614;2023-03-13T03:48:39;9.40;99.90
61841;DHT22;47773;53.174;6.614;2023-03-13T03:51:05;9.40;99.90
61841;DHT22;47773;53.174;6.614;2023-03-13T03:53:31;9.40;99.90
61841;DHT22;47773;53.174;6.614;2023-03-13T03:55:57;9.40;99.90
61841;DHT22;47773;53.174;6.614;2023-03-13T03:58:22;9.50;99.90
61841;DHT22;47773;53.174;6.614;2023-03-13T04:00:48;9.50;99.90
61841;DHT22;47773;53.174;6.614;2023-03-13T04:03:14;9.50;99.90
61841;DHT22;47773;53.174;6.614;2023-03-13T04:05:41;9.50;99.90
61841;DHT22;47773;53.174;6.614;2023-03-13T04:08:07;9.60;99.90
61841;DHT22;47773;53.174;6.614;2023-03-13T04:10:34;9.50;99.90
61841;DHT22;47773;53.174;6.614;2023-03-13T04:12:59;9.60;99.90
61841;DHT22;47773;53.174;6.614;2023-03-13T04:15:25;9.60;99.90
61841;DHT22;47773;53.174;6.614;2023-03-13T04:17:51;9.60;99.90
61841;DHT22;47773;53.174;6.614;2023-03-13T04:20:16;9.60;99.90
61841;DHT22;47773;53.174;6.614;2023-03-13T04:22:42;9.70;99.90
61841;DHT22;47773;53.174;6.614;2023-03-13T04:25:09;9.70;99.90
61841;DHT22;47773;53.174;6.614;2023-03-13T04:27:35;9.70;99.90
61841;DHT22;47773;53.174;6.614;2023-03-13T04:30:01;9.80;99.90
61841;DHT22;47773;53.174;6.614;2023-03-13T04:32:26;9.80;99.90
61841;DHT22;47773;53.174;6.614;2023-03-13T04:34:52;9.90;99.90
61841;DHT22;47773;53.174;6.614;2023-03-13T04:37:18;10.00;99.90
61841;DHT22;47773;53.174;6.614;2023-03-13T04:39:43;10.00;99.90
61841;DHT22;47773;53.174;6.614;2023-03-13T04:42:10;10.10;99.90
61841;DHT22;47773;53.174;6.614;2023-03-13T04:44:36;10.20;99.90
61841;DHT22;47773;53.174;6.614;2023-03-13T04:47:02;10.20;99.90
61841;DHT22;47773;53.174;6.614;2023-03-13T04:49:28;10.30;99.90
61841;DHT22;47773;53.174;6.614;2023-03-13T04:51:53;10.30;99.90
61841;DHT22;47773;53.174;6.614;2023-03-13T04:54:19;10.30;99.90
61841;DHT22;47773;53.174;6.614;2023-03-13T04:56:45;10.40;99.90
61841;DHT22;47773;53.174;6.614;2023-03-13T04:59:11;10.40;99.90
61841;DHT22;47773;53.174;6.614;2023-03-13T05:01:38;10.50;99.90
61841;DHT22;47773;53.174;6.614;2023-03-13T05:04:04;10.50;99.90
61841;DHT22;47773;53.174;6.614;2023-03-13T05:06:30;10.50;99.90
61841;DHT22;47773;53.174;6.614;2023-03-13T05:08:55;10.60;99.90
61841;DHT22;47773;53.174;6.614;2023-03-13T05:11:21;10.60;99.90
61841;DHT22;47773;53.174;6.614;2023-03-13T05:13:47;10.70;99.90
61841;DHT22;47773;53.174;6.614;2023-03-13T05:16:13;10.70;99.90
61841;DHT22;47773;53.174;6.614;2023-03-13T05:18:39;10.80;99.90
61841;DHT22;47773;53.174;6.614;2023-03-13T05:21:05;10.80;99.90
61841;DHT22;47773;53.174;6.614;2023-03-13T05:23:31;10.90;99.90
61841;DHT22;47773;53.174;6.614;2023-03-13T05:25:56;10.90;99.90
61841;DHT22;47773;53.174;6.614;2023-03-13T05:28:22;11.00;99.90
61841;DHT22;47773;53.174;6.614;2023-03-13T05:30:48;11.10;99.90
61841;DHT22;47773;53.174;6.614;2023-03-13T05:33:14;11.20;99.90
61841;DHT22;47773;53.174;6.614;2023-03-13T05:35:39;11.20;99.90
61841;DHT22;47773;53.174;6.614;2023-03-13T05:38:05;11.30;99.90
61841;DHT22;47773;53.174;6.614;2023-03-13T05:40:31;11.30;99.90
61841;DHT22;47773;53.174;6.614;2023-03-13T05:42:56;11.30;99.90
61841;DHT22;47773;53.174;6.614;2023-03-13T05:45:22;11.40;99.90
61841;DHT22;47773;53.174;6.614;2023-03-13T05:47:47;11.50;99.90
61841;DHT22;47773;53.174;6.614;2023-03-13T05:50:13;11.50;99.90
61841;DHT22;47773;53.174;6.614;2023-03-13T05:52:39;11.50;99.90
61841;DHT22;47773;53.174;6.614;2023-03-13T05:55:05;11.50;99.90
61841;DHT22;47773;53.174;6.614;2023-03-13T05:57:31;11.50;99.90
61841;DHT22;47773;53.174;6.614;2023-03-13T05:59:56;11.60;99.90
61841;DHT22;47773;53.174;6.614;2023-03-13T06:02:22;11.60;99.90
61841;DHT22;47773;53.174;6.614;2023-03-13T06:04:47;11.60;99.90
61841;DHT22;47773;53.174;6.614;2023-03-13T06:07:13;11.60;99.90
61841;DHT22;47773;53.174;6.614;2023-03-13T06:09:39;11.60;99.90
61841;DHT22;47773;53.174;6.614;2023-03-13T06:12:07;11.60;99.90
61841;DHT22;47773;53.174;6.614;2023-03-13T06:14:32;11.50;99.90
61841;DHT22;47773;53.174;6.614;2023-03-13T06:16:58;11.60;99.90
61841;DHT22;47773;53.174;6.614;2023-03-13T06:19:24;11.50;99.90
61841;DHT22;47773;53.174;6.614;2023-03-13T06:21:50;11.50;99.90
61841;DHT22;47773;53.174;6.614;2023-03-13T06:24:16;11.50;99.90
61841;DHT22;47773;53.174;6.614;2023-03-13T06:26:42;11.50;99.90
61841;DHT22;47773;53.174;6.614;2023-03-13T06:29:09;11.50;99.90
61841;DHT22;47773;53.174;6.614;2023-03-13T06:31:35;11.50;99.90
61841;DHT22;47773;53.174;6.614;2023-03-13T06:34:00;11.50;99.90
61841;DHT22;47773;53.174;6.614;2023-03-13T06:36:26;11.60;99.90
61841;DHT22;47773;53.174;6.614;2023-03-13T06:38:52;11.60;99.90
61841;DHT22;47773;53.174;6.614;2023-03-13T06:41:17;11.70;99.90
61841;DHT22;47773;53.174;6.614;2023-03-13T06:43:43;11.70;99.90
61841;DHT22;47773;53.174;6.614;2023-03-13T06:46:16;11.70;99.90
61841;DHT22;47773;53.174;6.614;2023-03-13T06:48:42;11.70;99.90
61841;DHT22;47773;53.174;6.614;2023-03-13T06:51:13;11.80;99.90
61841;DHT22;47773;53.174;6.614;2023-03-13T06:53:39;11.80;99.90
61841;DHT22;47773;53.174;6.614;2023-03-13T06:56:06;11.80;99.90
61841;DHT22;47773;53.174;6.614;2023-03-13T06:58:31;11.80;99.90
61841;DHT22;47773;53.174;6.614;2023-03-13T07:01:19;11.80;99.90
61841;DHT22;47773;53.174;6.614;2023-03-13T07:03:43;11.90;99.90
61841;DHT22;47773;53.174;6.614;2023-03-13T07:06:11;11.90;99.90
61841;DHT22;47773;53.174;6.614;2023-03-13T07:08:37;11.90;99.90
61841;DHT22;47773;53.174;6.614;2023-03-13T07:11:08;11.90;99.90
61841;DHT22;47773;53.174;6.614;2023-03-13T07:13:34;11.90;99.90
61841;DHT22;47773;53.174;6.614;2023-03-13T07:16:05;11.90;99.90
61841;DHT22;47773;53.174;6.614;2023-03-13T07:18:31;11.90;99.90
61841;DHT22;47773;53.174;6.614;2023-03-13T07:20:59;11.90;99.90
61841;DHT22;47773;53.174;6.614;2023-03-13T07:23:27;11.90;99.90
61841;DHT22;47773;53.174;6.614;2023-03-13T07:25:54;11.90;99.90
61841;DHT22;47773;53.174;6.614;2023-03-13T07:28:21;11.90;99.90
61841;DHT22;47773;53.174;6.614;2023-03-13T07:30:47;11.90;99.90
61841;DHT22;47773;53.174;6.614;2023-03-13T07:33:14;11.90;99.90
61841;DHT22;47773;53.174;6.614;2023-03-13T07:35:39;11.90;99.90
61841;DHT22;47773;53.174;6.614;2023-03-13T07:38:05;11.90;99.90
61841;DHT22;47773;53.174;6.614;2023-03-13T07:40:31;11.90;99.90
61841;DHT22;47773;53.174;6.614;2023-03-13T07:42:56;12.00;99.90
61841;DHT22;47773;53.174;6.614;2023-03-13T07:45:22;12.00;99.90
61841;DHT22;47773;53.174;6.614;2023-03-13T07:47:47;12.00;99.90
61841;DHT22;47773;53.174;6.614;2023-03-13T07:50:13;12.00;99.90
61841;DHT22;47773;53.174;6.614;2023-03-13T07:52:39;12.00;99.90
61841;DHT22;47773;53.174;6.614;2023-03-13T07:55:04;12.00;99.90
61841;DHT22;47773;53.174;6.614;2023-03-13T07:57:30;11.90;99.90
61841;DHT22;47773;53.174;6.614;2023-03-13T07:59:56;11.90;99.90
61841;DHT22;47773;53.174;6.614;2023-03-13T08:02:22;11.90;99.90
61841;DHT22;47773;53.174;6.614;2023-03-13T08:04:51;11.90;99.90
61841;DHT22;47773;53.174;6.614;2023-03-13T08:07:17;11.90;99.90
61841;DHT22;47773;53.174;6.614;2023-03-13T08:09:42;11.90;99.90
61841;DHT22;47773;53.174;6.614;2023-03-13T08:12:08;11.80;99.90
61841;DHT22;47773;53.174;6.614;2023-03-13T08:14:34;11.80;99.90
61841;DHT22;47773;53.174;6.614;2023-03-13T08:17:00;11.80;99.90
61841;DHT22;47773;53.174;6.614;2023-03-13T08:19:25;11.80;99.90
61841;DHT22;47773;53.174;6.614;2023-03-13T08:21:51;11.90;99.90
61841;DHT22;47773;53.174;6.614;2023-03-13T08:24:17;11.90;99.90
61841;DHT22;47773;53.174;6.614;2023-03-13T08:26:42;11.90;99.90
61841;DHT22;47773;53.174;6.614;2023-03-13T08:29:13;11.90;99.90
61841;DHT22;47773;53.174;6.614;2023-03-13T08:31:47;12.00;99.90
61841;DHT22;47773;53.174;6.614;2023-03-13T08:34:14;12.00;99.90
61841;DHT22;47773;53.174;6.614;2023-03-13T08:36:41;12.10;99.90
61841;DHT22;47773;53.174;6.614;2023-03-13T08:39:11;12.20;99.90
61841;DHT22;47773;53.174;6.614;2023-03-13T08:41:38;12.30;99.90
61841;DHT22;47773;53.174;6.614;2023-03-13T08:44:06;12.40;99.90
61841;DHT22;47773;53.174;6.614;2023-03-13T08:46:34;12.50;99.90
61841;DHT22;47773;53.174;6.614;2023-03-13T08:49:01;12.70;99.90
61841;DHT22;47773;53.174;6.614;2023-03-13T08:51:28;12.80;99.90
61841;DHT22;47773;53.174;6.614;2023-03-13T08:53:55;12.90;99.90
61841;DHT22;47773;53.174;6.614;2023-03-13T08:56:23;12.90;99.90
61841;DHT22;47773;53.174;6.614;2023-03-13T08:58:50;13.00;99.90
61841;DHT22;47773;53.174;6.614;2023-03-13T09:01:16;13.00;99.90
61841;DHT22;47773;53.174;6.614;2023-03-13T09:03:42;13.10;99.90
61841;DHT22;47773;53.174;6.614;2023-03-13T09:06:09;13.20;99.90
61841;DHT22;47773;53.174;6.614;2023-03-13T09:08:35;13.20;99.90
61841;DHT22;47773;53.174;6.614;2023-03-13T09:11:10;13.30;99.90
61841;DHT22;47773;53.174;6.614;2023-03-13T09:13:37;13.30;99.90
61841;DHT22;47773;53.174;6.614;2023-03-13T09:16:06;13.30;99.90
61841;DHT22;47773;53.174;6.614;2023-03-13T09:18:32;13.30;99.90
61841;DHT22;47773;53.174;6.614;2023-03-13T09:20:58;13.30;99.90
61841;DHT22;47773;53.174;6.614;2023-03-13T09:23:24;13.20;99.90
61841;DHT22;47773;53.174;6.614;2023-03-13T09:25:54;13.20;99.90
61841;DHT22;47773;53.174;6.614;2023-03-13T09:28:22;13.10;99.90
61841;DHT22;47773;53.174;6.614;2023-03-13T09:30:48;13.10;99.90
61841;DHT22;47773;53.174;6.614;2023-03-13T09:33:15;13.00;99.90
61841;DHT22;47773;53.174;6.614;2023-03-13T09:35:41;13.00;99.90
61841;DHT22;47773;53.174;6.614;2023-03-13T09:38:07;12.90;99.90
61841;DHT22;47773;53.174;6.614;2023-03-13T09:40:43;12.90;99.90
61841;DHT22;47773;53.174;6.614;2023-03-13T09:46:01;12.80;99.90
61841;DHT22;47773;53.174;6.614;2023-03-13T09:48:33;12.90;99.90
61841;DHT22;47773;53.174;6.614;2023-03-13T09:51:05;12.80;99.90
61841;DHT22;47773;53.174;6.614;2023-03-13T09:56:18;12.90;99.90
61841;DHT22;47773;53.174;6.614;2023-03-13T09:58:53;12.90;99.90
61841;DHT22;47773;53.174;6.614;2023-03-13T10:01:28;12.90;99.90
61841;DHT22;47773;53.174;6.614;2023-03-13T10:04:13;12.90;99.90
61841;DHT22;47773;53.174;6.614;2023-03-13T10:06:47;13.10;99.90
61841;DHT22;47773;53.174;6.614;2023-03-13T10:09:19;13.30;99.90
61841;DHT22;47773;53.174;6.614;2023-03-13T10:11:55;13.40;99.90
61841;DHT22;47773;53.174;6.614;2023-03-13T10:14:30;13.70;99.90
61841;DHT22;47773;53.174;6.614;2023-03-13T10:17:27;13.90;99.90
61841;DHT22;47773;53.174;6.614;2023-03-13T10:22:47;14.00;99.90
61841;DHT22;47773;53.174;6.614;2023-03-13T10:25:36;14.10;99.90
61841;DHT22;47773;53.174;6.614;2023-03-13T10:28:08;14.10;99.90
61841;DHT22;47773;53.174;6.614;2023-03-13T10:30:35;14.30;99.90
61841;DHT22;47773;53.174;6.614;2023-03-13T10:35:37;14.40;99.90
61841;DHT22;47773;53.174;6.614;2023-03-13T10:40:36;14.30;99.90
61841;DHT22;47773;53.174;6.614;2023-03-13T10:43:21;14.30;99.90
61841;DHT22;47773;53.174;6.614;2023-03-13T10:45:46;14.40;99.90
61841;DHT22;47773;53.174;6.614;2023-03-13T10:48:21;14.40;99.90
61841;DHT22;47773;53.174;6.614;2023-03-13T10:50:49;14.40;99.90
61841;DHT22;47773;53.174;6.614;2023-03-13T10:55:54;14.30;99.90
61841;DHT22;47773;53.174;6.614;2023-03-13T10:58:47;14.20;99.90
61841;DHT22;47773;53.174;6.614;2023-03-13T11:01:25;14.20;99.90
61841;DHT22;47773;53.174;6.614;2023-03-13T11:03:54;14.10;99.90
61841;DHT22;47773;53.174;6.614;2023-03-13T11:09:02;14.20;99.90
61841;DHT22;47773;53.174;6.614;2023-03-13T11:11:29;14.30;99.90
61841;DHT22;47773;53.174;6.614;2023-03-13T11:14:19;14.30;99.90
61841;DHT22;47773;53.174;6.614;2023-03-13T11:16:51;14.30;99.90
61841;DHT22;47773;53.174;6.614;2023-03-13T11:19:48;14.30;99.90
61841;DHT22;47773;53.174;6.614;2023-03-13T11:22:26;14.20;99.90
61841;DHT22;47773;53.174;6.614;2023-03-13T11:25:16;14.30;99.90
61841;DHT22;47773;53.174;6.614;2023-03-13T11:27:45;14.30;99.90
61841;DHT22;47773;53.174;6.614;2023-03-13T11:36:01;14.30;99.90
61841;DHT22;47773;53.174;6.614;2023-03-13T11:38:42;14.20;99.90
61841;DHT22;47773;53.174;6.614;2023-03-13T11:41:19;14.20;99.90
61841;DHT22;47773;53.174;6.614;2023-03-13T11:51:59;14.40;99.90
61841;DHT22;47773;53.174;6.614;2023-03-13T12:05:22;14.60;99.90
61841;DHT22;47773;53.174;6.614;2023-03-13T12:11:05;14.70;99.90
61841;DHT22;47773;53.174;6.614;2023-03-13T12:13:35;14.90;99.90
61841;DHT22;47773;53.174;6.614;2023-03-13T12:16:10;14.90;99.90
61841;DHT22;47773;53.174;6.614;2023-03-13T12:18:41;14.80;99.90
61841;DHT22;47773;53.174;6.614;2023-03-13T12:24:11;15.10;99.90
61841;DHT22;47773;53.174;6.614;2023-03-13T12:26:44;15.10;99.90
61841;DHT22;47773;53.174;6.614;2023-03-13T12:31:46;15.00;99.90
61841;DHT22;47773;53.174;6.614;2023-03-13T12:34:26;14.90;99.90
61841;DHT22;47773;53.174;6.614;2023-03-13T12:37:49;14.90;99.90
61841;DHT22;47773;53.174;6.614;2023-03-13T12:39:57;14.90;99.90
61841;DHT22;47773;53.174;6.614;2023-03-13T12:45:16;15.00;99.90
61841;DHT22;47773;53.174;6.614;2023-03-13T13:04:16;14.90;99.90
61841;DHT22;47773;53.174;6.614;2023-03-13T13:12:29;15.20;99.90
61841;DHT22;47773;53.174;6.614;2023-03-13T13:14:58;15.20;99.90
61841;DHT22;47773;53.174;6.614;2023-03-13T13:17:44;15.10;99.90
61841;DHT22;47773;53.174;6.614;2023-03-13T13:28:51;15.00;99.90
61841;DHT22;47773;53.174;6.614;2023-03-13T13:37:23;15.00;99.90
61841;DHT22;47773;53.174;6.614;2023-03-13T13:39:52;14.90;99.90
61841;DHT22;47773;53.174;6.614;2023-03-13T13:45:21;15.00;99.90
61841;DHT22;47773;53.174;6.614;2023-03-13T13:47:50;15.00;99.90
61841;DHT22;47773;53.174;6.614;2023-03-13T13:50:27;14.90;99.90
61841;DHT22;47773;53.174;6.614;2023-03-13T13:53:23;14.90;99.90
61841;DHT22;47773;53.174;6.614;2023-03-13T13:55:53;14.80;99.90
61841;DHT22;47773;53.174;6.614;2023-03-13T13:58:24;14.80;99.90
61841;DHT22;47773;53.174;6.614;2023-03-13T14:00:55;14.80;99.90
61841;DHT22;47773;53.174;6.614;2023-03-13T14:03:26;14.80;99.90
61841;DHT22;47773;53.174;6.614;2023-03-13T14:05:59;14.80;99.90
61841;DHT22;47773;53.174;6.614;2023-03-13T14:08:32;14.70;99.90
61841;DHT22;47773;53.174;6.614;2023-03-13T14:13:39;14.60;99.90
61841;DHT22;47773;53.174;6.614;2023-03-13T14:16:23;14.60;99.90
61841;DHT22;47773;53.174;6.614;2023-03-13T14:18:49;14.60;99.90
61841;DHT22;47773;53.174;6.614;2023-03-13T14:21:23;14.60;99.90
61841;DHT22;47773;53.174;6.614;2023-03-13T14:23:50;14.60;99.90
61841;DHT22;47773;53.174;6.614;2023-03-13T14:28:56;14.70;99.90
61841;DHT22;47773;53.174;6.614;2023-03-13T14:31:29;14.70;99.90
61841;DHT22;47773;53.174;6.614;2023-03-13T14:33:55;14.70;99.90
61841;DHT22;47773;53.174;6.614;2023-03-13T14:36:21;14.70;99.90
61841;DHT22;47773;53.174;6.614;2023-03-13T14:38:53;14.70;99.90
61841;DHT22;47773;53.174;6.614;2023-03-13T14:41:27;14.70;99.90
61841;DHT22;47773;53.174;6.614;2023-03-13T14:43:54;14.70;99.90
61841;DHT22;47773;53.174;6.614;2023-03-13T14:46:46;14.70;99.90
61841;DHT22;47773;53.174;6.614;2023-03-13T14:49:18;14.70;99.90
61841;DHT22;47773;53.174;6.614;2023-03-13T14:51:45;14.70;99.90
61841;DHT22;47773;53.174;6.614;2023-03-13T14:57:02;14.60;99.90
61841;DHT22;47773;53.174;6.614;2023-03-13T14:59:27;14.60;99.90
61841;DHT22;47773;53.174;6.614;2023-03-13T15:02:14;14.50;99.90
61841;DHT22;47773;53.174;6.614;2023-03-13T15:05:01;14.50;99.90
61841;DHT22;47773;53.174;6.614;2023-03-13T15:12:46;14.40;99.90
61841;DHT22;47773;53.174;6.614;2023-03-13T15:15:12;14.30;99.90
61841;DHT22;47773;53.174;6.614;2023-03-13T15:17:38;14.30;99.90
61841;DHT22;47773;53.174;6.614;2023-03-13T15:20:04;14.20;99.90
61841;DHT22;47773;53.174;6.614;2023-03-13T15:22:35;14.20;99.90
61841;DHT22;47773;53.174;6.614;2023-03-13T15:25:01;14.10;99.90
61841;DHT22;47773;53.174;6.614;2023-03-13T15:27:27;14.10;99.90
61841;DHT22;47773;53.174;6.614;2023-03-13T15:29:52;14.10;99.90
61841;DHT22;47773;53.174;6.614;2023-03-13T15:34:51;14.10;99.90
61841;DHT22;47773;53.174;6.614;2023-03-13T15:37:17;14.10;99.90
61841;DHT22;47773;53.174;6.614;2023-03-13T15:39:43;14.10;99.90
61841;DHT22;47773;53.174;6.614;2023-03-13T15:42:09;14.10;99.90
61841;DHT22;47773;53.174;6.614;2023-03-13T15:44:34;14.10;99.90
61841;DHT22;47773;53.174;6.614;2023-03-13T15:47:00;14.00;99.90
61841;DHT22;47773;53.174;6.614;2023-03-13T15:49:26;14.00;99.90
61841;DHT22;47773;53.174;6.614;2023-03-13T15:51:51;14.00;99.90
61841;DHT22;47773;53.174;6.614;2023-03-13T15:54:18;14.00;99.90
61841;DHT22;47773;53.174;6.614;2023-03-13T15:56:44;13.90;99.90
61841;DHT22;47773;53.174;6.614;2023-03-13T15:59:11;13.90;99.90
61841;DHT22;47773;53.174;6.614;2023-03-13T16:01:37;13.80;99.90
61841;DHT22;47773;53.174;6.614;2023-03-13T16:04:03;13.80;99.90
61841;DHT22;47773;53.174;6.614;2023-03-13T16:06:29;13.70;99.90
61841;DHT22;47773;53.174;6.614;2023-03-13T16:08:57;13.70;99.90
61841;DHT22;47773;53.174;6.614;2023-03-13T16:11:25;13.70;99.90
61841;DHT22;47773;53.174;6.614;2023-03-13T16:13:51;13.60;99.90
61841;DHT22;47773;53.174;6.614;2023-03-13T16:18:47;13.60;99.90
61841;DHT22;47773;53.174;6.614;2023-03-13T16:21:22;13.50;99.90
61841;DHT22;47773;53.174;6.614;2023-03-13T16:23:48;13.50;99.90
61841;DHT22;47773;53.174;6.614;2023-03-13T16:26:17;13.50;99.90
61841;DHT22;47773;53.174;6.614;2023-03-13T16:28:43;13.40;99.90
61841;DHT22;47773;53.174;6.614;2023-03-13T16:31:16;13.40;99.90
61841;DHT22;47773;53.174;6.614;2023-03-13T16:33:43;13.40;99.90
61841;DHT22;47773;53.174;6.614;2023-03-13T16:36:17;13.30;99.90
61841;DHT22;47773;53.174;6.614;2023-03-13T16:38:45;13.30;99.90
61841;DHT22;47773;53.174;6.614;2023-03-13T16:41:16;13.20;99.90
61841;DHT22;47773;53.174;6.614;2023-03-13T16:43:43;13.20;99.90
61841;DHT22;47773;53.174;6.614;2023-03-13T16:46:23;13.20;99.90
61841;DHT22;47773;53.174;6.614;2023-03-13T16:48:52;13.10;99.90
61841;DHT22;47773;53.174;6.614;2023-03-13T16:51:20;13.10;99.90
61841;DHT22;47773;53.174;6.614;2023-03-13T16:53:47;13.00;99.90
61841;DHT22;47773;53.174;6.614;2023-03-13T16:56:32;13.00;99.90
61841;DHT22;47773;53.174;6.614;2023-03-13T16:59:12;12.90;99.90
61841;DHT22;47773;53.174;6.614;2023-03-13T17:01:38;12.90;99.90
61841;DHT22;47773;53.174;6.614;2023-03-13T17:04:04;12.90;99.90
61841;DHT22;47773;53.174;6.614;2023-03-13T17:06:35;12.80;99.90
61841;DHT22;47773;53.174;6.614;2023-03-13T17:09:03;12.80;99.90
61841;DHT22;47773;53.174;6.614;2023-03-13T17:11:29;12.80;99.90
61841;DHT22;47773;53.174;6.614;2023-03-13T17:13:54;12.70;99.90
61841;DHT22;47773;53.174;6.614;2023-03-13T17:16:29;12.70;99.90
61841;DHT22;47773;53.174;6.614;2023-03-13T17:18:56;12.70;99.90
61841;DHT22;47773;53.174;6.614;2023-03-13T17:21:26;12.70;99.90
61841;DHT22;47773;53.174;6.614;2023-03-13T17:23:53;12.60;99.90
61841;DHT22;47773;53.174;6.614;2023-03-13T17:28:48;12.60;99.90
61841;DHT22;47773;53.174;6.614;2023-03-13T17:31:14;12.60;99.90
61841;DHT22;47773;53.174;6.614;2023-03-13T17:33:40;12.60;99.90
61841;DHT22;47773;53.174;6.614;2023-03-13T17:36:33;12.50;99.90
61841;DHT22;47773;53.174;6.614;2023-03-13T17:39:01;12.40;99.90
61841;DHT22;47773;53.174;6.614;2023-03-13T17:41:28;12.40;99.90
61841;DHT22;47773;53.174;6.614;2023-03-13T17:43:54;12.40;99.90
61841;DHT22;47773;53.174;6.614;2023-03-13T17:46:42;12.30;99.90
61841;DHT22;47773;53.174;6.614;2023-03-13T17:49:14;12.30;99.90